sensor_id;sensor_type;location;lat;lon;timestamp;P1;durP1;ratioP1;P2;durP2;ratioP2
46022;SDS011;31756;47.936;16.224;2023-05-10T00:00:24;5.15;;;4.20;;
46022;SDS011;31756;47.936;16.224;2023-05-10T00:02:50;4.88;;;3.78;;
46022;SDS011;31756;47.936;16.224;2023-05-10T00:05:15;4.70;;;3.78;;
46022;SDS011;31756;47.936;16.224;2023-05-10T00:07:41;3.97;;;3.33;;
46022;SDS011;31756;47.936;16.224;2023-05-10T00:10:10;4.13;;;3.70;;
46022;SDS011;31756;47.936;16.224;2023-05-10T00:12:38;4.95;;;3.42;;
46022;SDS011;31756;47.936;16.224;2023-05-10T00:15:04;5.75;;;4.22;;
46022;SDS011;31756;47.936;16.224;2023-05-10T00:17:30;5.22;;;3.55;;
46022;SDS011;31756;47.936;16.224;2023-05-10T00:19:55;4.93;;;3.53;;
46022;SDS011;31756;47.936;16.224;2023-05-10T00:22:21;4.13;;;3.47;;
46022;SDS011;31756;47.936;16.224;2023-05-10T00:24:46;4.53;;;3.58;;
46022;SDS011;31756;47.936;16.224;2023-05-10T00:27:11;4.30;;;3.50;;
46022;SDS011;31756;47.936;16.224;2023-05-10T00:29:37;4.28;;;3.40;;
46022;SDS011;31756;47.936;16.224;2023-05-10T00:32:02;5.25;;;3.63;;
46022;SDS011;31756;47.936;16.224;2023-05-10T00:34:28;4.57;;;4.18;;
46022;SDS011;31756;47.936;16.224;2023-05-10T00:36:54;4.93;;;3.58;;
46022;SDS011;31756;47.936;16.224;2023-05-10T00:39:19;4.88;;;3.63;;
46022;SDS011;31756;47.936;16.224;2023-05-10T00:41:45;4.73;;;3.40;;
46022;SDS011;31756;47.936;16.224;2023-05-10T00:44:11;5.13;;;3.87;;
46022;SDS011;31756;47.936;16.224;2023-05-10T00:46:36;4.03;;;3.60;;
46022;SDS011;31756;47.936;16.224;2023-05-10T00:49:02;4.20;;;3.80;;
46022;SDS011;31756;47.936;16.224;2023-05-10T00:51:28;4.43;;;3.70;;
46022;SDS011;31756;47.936;16.224;2023-05-10T00:53:54;6.38;;;4.68;;
46022;SDS011;31756;47.936;16.224;2023-05-10T00:56:21;4.10;;;3.73;;
46022;SDS011;31756;47.936;16.224;2023-05-10T00:58:48;5.32;;;4.18;;
46022;SDS011;31756;47.936;16.224;2023-05-10T01:01:14;6.27;;;4.23;;
46022;SDS011;31756;47.936;16.224;2023-05-10T01:03:40;4.93;;;4.10;;
46022;SDS011;31756;47.936;16.224;2023-05-10T01:06:05;6.00;;;4.33;;
46022;SDS011;31756;47.936;16.224;2023-05-10T01:08:31;6.13;;;4.78;;
46022;SDS011;31756;47.936;16.224;2023-05-10T01:10:57;6.03;;;3.83;;
46022;SDS011;31756;47.936;16.224;2023-05-10T01:13:26;4.77;;;4.37;;
46022;SDS011;31756;47.936;16.224;2023-05-10T01:15:53;4.80;;;4.00;;
46022;SDS011;31756;47.936;16.224;2023-05-10T01:18:19;4.63;;;3.80;;
46022;SDS011;31756;47.936;16.224;2023-05-10T01:20:45;5.30;;;4.00;;
46022;SDS011;31756;47.936;16.224;2023-05-10T01:23:22;6.20;;;3.87;;
46022;SDS011;31756;47.936;16.224;2023-05-10T01:26:11;4.03;;;3.63;;
46022;SDS011;31756;47.936;16.224;2023-05-10T01:29:05;5.53;;;4.10;;
46022;SDS011;31756;47.936;16.224;2023-05-10T01:34:20;5.13;;;3.80;;
46022;SDS011;31756;47.936;16.224;2023-05-10T01:36:57;4.60;;;3.80;;
46022;SDS011;31756;47.936;16.224;2023-05-10T01:39:24;4.23;;;3.70;;
46022;SDS011;31756;47.936;16.224;2023-05-10T01:42:14;5.47;;;4.60;;
46022;SDS011;31756;47.936;16.224;2023-05-10T01:47:17;4.37;;;3.70;;
46022;SDS011;31756;47.936;16.224;2023-05-10T01:49:47;4.83;;;4.27;;
46022;SDS011;31756;47.936;16.224;2023-05-10T01:52:15;5.30;;;4.30;;
46022;SDS011;31756;47.936;16.224;2023-05-10T01:54:43;7.47;;;4.47;;
46022;SDS011;31756;47.936;16.224;2023-05-10T01:57:09;4.53;;;3.83;;
46022;SDS011;31756;47.936;16.224;2023-05-10T01:59:37;6.10;;;4.83;;
46022;SDS011;31756;47.936;16.224;2023-05-10T02:02:07;6.27;;;4.40;;
46022;SDS011;31756;47.936;16.224;2023-05-10T02:04:37;6.97;;;4.20;;
46022;SDS011;31756;47.936;16.224;2023-05-10T02:07:03;5.90;;;3.60;;
46022;SDS011;31756;47.936;16.224;2023-05-10T02:09:30;9.47;;;4.43;;
46022;SDS011;31756;47.936;16.224;2023-05-10T02:11:57;3.93;;;3.53;;
46022;SDS011;31756;47.936;16.224;2023-05-10T02:14:24;4.03;;;3.60;;
46022;SDS011;31756;47.936;16.224;2023-05-10T02:16:52;6.07;;;3.90;;
46022;SDS011;31756;47.936;16.224;2023-05-10T02:19:17;4.47;;;3.97;;
46022;SDS011;31756;47.936;16.224;2023-05-10T02:21:43;5.27;;;4.00;;
46022;SDS011;31756;47.936;16.224;2023-05-10T02:24:12;4.37;;;3.17;;
46022;SDS011;31756;47.936;16.224;2023-05-10T02:26:38;5.03;;;4.40;;
46022;SDS011;31756;47.936;16.224;2023-05-10T02:29:04;6.13;;;4.37;;
46022;SDS011;31756;47.936;16.224;2023-05-10T02:31:31;4.90;;;4.43;;
46022;SDS011;31756;47.936;16.224;2023-05-10T02:33:57;5.13;;;3.90;;
46022;SDS011;31756;47.936;16.224;2023-05-10T02:36:23;5.33;;;4.83;;
46022;SDS011;31756;47.936;16.224;2023-05-10T02:38:49;6.37;;;4.73;;
46022;SDS011;31756;47.936;16.224;2023-05-10T02:41:16;7.13;;;5.47;;
46022;SDS011;31756;47.936;16.224;2023-05-10T02:43:41;7.57;;;4.87;;
46022;SDS011;31756;47.936;16.224;2023-05-10T02:46:07;7.23;;;5.17;;
46022;SDS011;31756;47.936;16.224;2023-05-10T02:48:34;5.63;;;4.47;;
46022;SDS011;31756;47.936;16.224;2023-05-10T02:51:00;5.93;;;4.30;;
46022;SDS011;31756;47.936;16.224;2023-05-10T02:53:30;7.97;;;4.20;;
46022;SDS011;31756;47.936;16.224;2023-05-10T02:56:00;7.87;;;4.50;;
46022;SDS011;31756;47.936;16.224;2023-05-10T02:58:26;5.57;;;4.20;;
46022;SDS011;31756;47.936;16.224;2023-05-10T03:00:52;5.70;;;4.60;;
46022;SDS011;31756;47.936;16.224;2023-05-10T03:03:18;4.93;;;3.77;;
46022;SDS011;31756;47.936;16.224;2023-05-10T03:05:48;6.90;;;5.50;;
46022;SDS011;31756;47.936;16.224;2023-05-10T03:08:16;6.10;;;4.83;;
46022;SDS011;31756;47.936;16.224;2023-05-10T03:11:28;6.07;;;4.87;;
46022;SDS011;31756;47.936;16.224;2023-05-10T03:14:03;6.13;;;4.63;;
46022;SDS011;31756;47.936;16.224;2023-05-10T03:16:26;5.17;;;3.93;;
46022;SDS011;31756;47.936;16.224;2023-05-10T03:21:25;6.67;;;4.40;;
46022;SDS011;31756;47.936;16.224;2023-05-10T03:24:04;4.90;;;4.27;;
46022;SDS011;31756;47.936;16.224;2023-05-10T03:26:31;5.97;;;4.53;;
46022;SDS011;31756;47.936;16.224;2023-05-10T03:29:05;6.83;;;4.37;;
46022;SDS011;31756;47.936;16.224;2023-05-10T03:31:33;5.20;;;4.00;;
46022;SDS011;31756;47.936;16.224;2023-05-10T03:33:59;6.37;;;4.57;;
46022;SDS011;31756;47.936;16.224;2023-05-10T03:36:26;4.83;;;3.87;;
46022;SDS011;31756;47.936;16.224;2023-05-10T03:38:52;4.40;;;4.00;;
46022;SDS011;31756;47.936;16.224;2023-05-10T03:41:18;6.60;;;5.00;;
46022;SDS011;31756;47.936;16.224;2023-05-10T03:43:43;6.07;;;4.43;;
46022;SDS011;31756;47.936;16.224;2023-05-10T03:46:08;6.20;;;4.47;;
46022;SDS011;31756;47.936;16.224;2023-05-10T03:48:37;10.07;;;4.87;;
46022;SDS011;31756;47.936;16.224;2023-05-10T03:51:02;5.27;;;4.73;;
46022;SDS011;31756;47.936;16.224;2023-05-10T03:53:33;4.40;;;3.80;;
46022;SDS011;31756;47.936;16.224;2023-05-10T03:55:58;4.40;;;3.70;;
46022;SDS011;31756;47.936;16.224;2023-05-10T03:58:29;5.00;;;4.00;;
46022;SDS011;31756;47.936;16.224;2023-05-10T04:00:55;5.00;;;3.73;;
46022;SDS011;31756;47.936;16.224;2023-05-10T04:03:24;5.27;;;4.33;;
46022;SDS011;31756;47.936;16.224;2023-05-10T04:06:02;6.80;;;4.70;;
46022;SDS011;31756;47.936;16.224;2023-05-10T04:08:27;8.27;;;4.72;;
46022;SDS011;31756;47.936;16.224;2023-05-10T04:10:54;7.63;;;4.30;;
46022;SDS011;31756;47.936;16.224;2023-05-10T04:13:19;7.60;;;4.67;;
46022;SDS011;31756;47.936;16.224;2023-05-10T04:15:45;8.33;;;5.03;;
46022;SDS011;31756;47.936;16.224;2023-05-10T04:18:13;8.60;;;4.50;;
46022;SDS011;31756;47.936;16.224;2023-05-10T04:20:38;6.53;;;5.23;;
46022;SDS011;31756;47.936;16.224;2023-05-10T04:23:04;7.80;;;4.60;;
46022;SDS011;31756;47.936;16.224;2023-05-10T04:25:29;5.97;;;4.57;;
46022;SDS011;31756;47.936;16.224;2023-05-10T04:27:55;6.27;;;4.07;;
46022;SDS011;31756;47.936;16.224;2023-05-10T04:30:22;4.88;;;4.18;;
46022;SDS011;31756;47.936;16.224;2023-05-10T04:32:48;8.13;;;4.18;;
46022;SDS011;31756;47.936;16.224;2023-05-10T04:35:13;5.07;;;4.43;;
46022;SDS011;31756;47.936;16.224;2023-05-10T04:37:39;5.60;;;4.65;;
46022;SDS011;31756;47.936;16.224;2023-05-10T04:40:05;4.50;;;4.10;;
46022;SDS011;31756;47.936;16.224;2023-05-10T04:42:31;6.30;;;4.60;;
46022;SDS011;31756;47.936;16.224;2023-05-10T04:44:56;9.98;;;4.95;;
46022;SDS011;31756;47.936;16.224;2023-05-10T04:47:22;9.70;;;5.55;;
46022;SDS011;31756;47.936;16.224;2023-05-10T04:49:47;8.45;;;5.60;;
46022;SDS011;31756;47.936;16.224;2023-05-10T04:52:13;6.20;;;4.45;;
46022;SDS011;31756;47.936;16.224;2023-05-10T04:54:39;8.85;;;4.88;;
46022;SDS011;31756;47.936;16.224;2023-05-10T04:57:05;5.22;;;4.47;;
46022;SDS011;31756;47.936;16.224;2023-05-10T04:59:30;5.88;;;5.28;;
46022;SDS011;31756;47.936;16.224;2023-05-10T05:01:55;6.13;;;5.18;;
46022;SDS011;31756;47.936;16.224;2023-05-10T05:04:24;6.80;;;5.03;;
46022;SDS011;31756;47.936;16.224;2023-05-10T05:06:50;5.90;;;4.60;;
46022;SDS011;31756;47.936;16.224;2023-05-10T05:09:15;6.45;;;5.63;;
46022;SDS011;31756;47.936;16.224;2023-05-10T05:11:41;8.55;;;4.80;;
46022;SDS011;31756;47.936;16.224;2023-05-10T05:14:06;9.85;;;5.35;;
46022;SDS011;31756;47.936;16.224;2023-05-10T05:16:32;7.65;;;4.88;;
46022;SDS011;31756;47.936;16.224;2023-05-10T05:18:57;5.45;;;4.90;;
46022;SDS011;31756;47.936;16.224;2023-05-10T05:21:23;7.18;;;5.22;;
46022;SDS011;31756;47.936;16.224;2023-05-10T05:23:50;6.10;;;4.22;;
46022;SDS011;31756;47.936;16.224;2023-05-10T05:26:15;8.80;;;4.43;;
46022;SDS011;31756;47.936;16.224;2023-05-10T05:28:41;6.10;;;4.40;;
46022;SDS011;31756;47.936;16.224;2023-05-10T05:31:06;6.85;;;5.00;;
46022;SDS011;31756;47.936;16.224;2023-05-10T05:33:35;6.65;;;4.85;;
46022;SDS011;31756;47.936;16.224;2023-05-10T05:36:01;5.30;;;4.80;;
46022;SDS011;31756;47.936;16.224;2023-05-10T05:38:26;9.85;;;5.68;;
46022;SDS011;31756;47.936;16.224;2023-05-10T05:40:52;6.13;;;5.03;;
46022;SDS011;31756;47.936;16.224;2023-05-10T05:43:17;5.95;;;4.57;;
46022;SDS011;31756;47.936;16.224;2023-05-10T05:45:43;8.63;;;4.70;;
46022;SDS011;31756;47.936;16.224;2023-05-10T05:48:08;7.10;;;4.45;;
46022;SDS011;31756;47.936;16.224;2023-05-10T05:50:34;4.82;;;4.43;;
46022;SDS011;31756;47.936;16.224;2023-05-10T05:52:59;6.30;;;4.07;;
46022;SDS011;31756;47.936;16.224;2023-05-10T05:55:25;4.40;;;3.67;;
46022;SDS011;31756;47.936;16.224;2023-05-10T05:57:51;4.38;;;3.97;;
46022;SDS011;31756;47.936;16.224;2023-05-10T06:00:16;4.13;;;3.50;;
46022;SDS011;31756;47.936;16.224;2023-05-10T06:02:43;4.88;;;4.30;;
46022;SDS011;31756;47.936;16.224;2023-05-10T06:05:09;5.20;;;4.00;;
46022;SDS011;31756;47.936;16.224;2023-05-10T06:07:34;6.22;;;3.75;;
46022;SDS011;31756;47.936;16.224;2023-05-10T06:10:00;4.13;;;3.50;;
46022;SDS011;31756;47.936;16.224;2023-05-10T06:12:25;4.25;;;3.85;;
46022;SDS011;31756;47.936;16.224;2023-05-10T06:14:51;9.45;;;3.75;;
46022;SDS011;31756;47.936;16.224;2023-05-10T06:17:16;3.95;;;3.35;;
46022;SDS011;31756;47.936;16.224;2023-05-10T06:19:42;4.18;;;3.50;;
46022;SDS011;31756;47.936;16.224;2023-05-10T06:22:07;5.00;;;3.65;;
46022;SDS011;31756;47.936;16.224;2023-05-10T06:24:33;4.43;;;4.03;;
46022;SDS011;31756;47.936;16.224;2023-05-10T06:26:58;5.00;;;3.42;;
46022;SDS011;31756;47.936;16.224;2023-05-10T06:29:25;4.00;;;3.60;;
46022;SDS011;31756;47.936;16.224;2023-05-10T06:31:51;6.15;;;4.15;;
46022;SDS011;31756;47.936;16.224;2023-05-10T06:34:16;7.03;;;3.70;;
46022;SDS011;31756;47.936;16.224;2023-05-10T06:36:42;5.45;;;3.45;;
46022;SDS011;31756;47.936;16.224;2023-05-10T06:39:07;4.53;;;3.92;;
46022;SDS011;31756;47.936;16.224;2023-05-10T06:41:33;6.60;;;4.30;;
46022;SDS011;31756;47.936;16.224;2023-05-10T06:43:58;6.65;;;3.50;;
46022;SDS011;31756;47.936;16.224;2023-05-10T06:46:24;4.13;;;3.72;;
46022;SDS011;31756;47.936;16.224;2023-05-10T06:48:49;8.77;;;4.10;;
46022;SDS011;31756;47.936;16.224;2023-05-10T06:51:15;4.28;;;3.20;;
46022;SDS011;31756;47.936;16.224;2023-05-10T06:53:41;5.75;;;3.95;;
46022;SDS011;31756;47.936;16.224;2023-05-10T06:56:06;3.88;;;3.08;;
46022;SDS011;31756;47.936;16.224;2023-05-10T06:58:32;3.90;;;3.50;;
46022;SDS011;31756;47.936;16.224;2023-05-10T07:01:04;4.22;;;3.05;;
46022;SDS011;31756;47.936;16.224;2023-05-10T07:03:30;7.55;;;4.03;;
46022;SDS011;31756;47.936;16.224;2023-05-10T07:05:59;4.05;;;3.75;;
46022;SDS011;31756;47.936;16.224;2023-05-10T07:08:25;4.38;;;4.03;;
46022;SDS011;31756;47.936;16.224;2023-05-10T07:10:50;5.05;;;3.20;;
46022;SDS011;31756;47.936;16.224;2023-05-10T07:13:16;3.85;;;3.45;;
46022;SDS011;31756;47.936;16.224;2023-05-10T07:15:41;4.45;;;4.03;;
46022;SDS011;31756;47.936;16.224;2023-05-10T07:18:07;3.80;;;3.45;;
46022;SDS011;31756;47.936;16.224;2023-05-10T07:20:32;3.45;;;3.15;;
46022;SDS011;31756;47.936;16.224;2023-05-10T07:22:58;3.42;;;3.13;;
46022;SDS011;31756;47.936;16.224;2023-05-10T07:25:23;4.13;;;3.22;;
46022;SDS011;31756;47.936;16.224;2023-05-10T07:27:49;3.63;;;3.25;;
46022;SDS011;31756;47.936;16.224;2023-05-10T07:30:14;2.85;;;2.65;;
46022;SDS011;31756;47.936;16.224;2023-05-10T07:32:40;4.55;;;3.33;;
46022;SDS011;31756;47.936;16.224;2023-05-10T07:35:07;3.10;;;2.80;;
46022;SDS011;31756;47.936;16.224;2023-05-10T07:37:33;3.78;;;2.95;;
46022;SDS011;31756;47.936;16.224;2023-05-10T07:39:58;3.03;;;2.83;;
46022;SDS011;31756;47.936;16.224;2023-05-10T07:42:24;5.93;;;3.33;;
46022;SDS011;31756;47.936;16.224;2023-05-10T07:44:49;3.50;;;2.92;;
46022;SDS011;31756;47.936;16.224;2023-05-10T07:47:15;3.83;;;3.53;;
46022;SDS011;31756;47.936;16.224;2023-05-10T07:49:40;3.40;;;3.15;;
46022;SDS011;31756;47.936;16.224;2023-05-10T07:52:05;5.60;;;3.40;;
46022;SDS011;31756;47.936;16.224;2023-05-10T07:54:31;3.78;;;3.58;;
46022;SDS011;31756;47.936;16.224;2023-05-10T07:56:56;3.90;;;3.08;;
46022;SDS011;31756;47.936;16.224;2023-05-10T07:59:22;3.90;;;3.33;;
46022;SDS011;31756;47.936;16.224;2023-05-10T08:01:47;3.30;;;3.05;;
46022;SDS011;31756;47.936;16.224;2023-05-10T08:04:13;4.28;;;3.45;;
46022;SDS011;31756;47.936;16.224;2023-05-10T08:06:39;2.78;;;2.58;;
46022;SDS011;31756;47.936;16.224;2023-05-10T08:09:04;3.38;;;3.10;;
46022;SDS011;31756;47.936;16.224;2023-05-10T08:11:29;2.95;;;2.75;;
46022;SDS011;31756;47.936;16.224;2023-05-10T08:13:55;5.20;;;3.40;;
46022;SDS011;31756;47.936;16.224;2023-05-10T08:16:21;3.47;;;3.20;;
46022;SDS011;31756;47.936;16.224;2023-05-10T08:18:46;3.13;;;2.83;;
46022;SDS011;31756;47.936;16.224;2023-05-10T08:21:12;4.97;;;2.83;;
46022;SDS011;31756;47.936;16.224;2023-05-10T08:23:37;2.45;;;2.30;;
46022;SDS011;31756;47.936;16.224;2023-05-10T08:26:03;2.83;;;2.70;;
46022;SDS011;31756;47.936;16.224;2023-05-10T08:28:28;3.05;;;2.85;;
46022;SDS011;31756;47.936;16.224;2023-05-10T08:30:54;3.05;;;2.75;;
46022;SDS011;31756;47.936;16.224;2023-05-10T08:33:19;2.83;;;2.63;;
46022;SDS011;31756;47.936;16.224;2023-05-10T08:35:44;5.57;;;2.60;;
46022;SDS011;31756;47.936;16.224;2023-05-10T08:38:10;3.35;;;2.65;;
46022;SDS011;31756;47.936;16.224;2023-05-10T08:40:44;9.02;;;3.42;;
46022;SDS011;31756;47.936;16.224;2023-05-10T08:45:40;2.53;;;2.33;;
46022;SDS011;31756;47.936;16.224;2023-05-10T08:48:06;3.88;;;2.60;;
46022;SDS011;31756;47.936;16.224;2023-05-10T08:50:34;4.00;;;3.50;;
46022;SDS011;31756;47.936;16.224;2023-05-10T08:53:00;3.80;;;3.40;;
46022;SDS011;31756;47.936;16.224;2023-05-10T08:55:28;5.68;;;3.83;;
46022;SDS011;31756;47.936;16.224;2023-05-10T08:57:55;7.10;;;4.43;;
46022;SDS011;31756;47.936;16.224;2023-05-10T09:00:20;4.07;;;3.67;;
46022;SDS011;31756;47.936;16.224;2023-05-10T09:02:48;3.60;;;3.30;;
46022;SDS011;31756;47.936;16.224;2023-05-10T09:05:14;4.28;;;3.92;;
46022;SDS011;31756;47.936;16.224;2023-05-10T09:07:41;8.35;;;3.72;;
46022;SDS011;31756;47.936;16.224;2023-05-10T09:10:07;4.47;;;3.13;;
46022;SDS011;31756;47.936;16.224;2023-05-10T09:12:33;4.53;;;4.13;;
46022;SDS011;31756;47.936;16.224;2023-05-10T09:14:59;5.45;;;3.78;;
46022;SDS011;31756;47.936;16.224;2023-05-10T09:17:24;4.20;;;3.90;;
46022;SDS011;31756;47.936;16.224;2023-05-10T09:19:56;3.78;;;3.42;;
46022;SDS011;31756;47.936;16.224;2023-05-10T09:22:22;3.53;;;3.25;;
46022;SDS011;31756;47.936;16.224;2023-05-10T09:24:47;3.47;;;3.17;;
46022;SDS011;31756;47.936;16.224;2023-05-10T09:27:13;5.05;;;3.53;;
46022;SDS011;31756;47.936;16.224;2023-05-10T09:29:38;3.83;;;3.53;;
46022;SDS011;31756;47.936;16.224;2023-05-10T09:32:04;4.05;;;3.55;;
46022;SDS011;31756;47.936;16.224;2023-05-10T09:34:30;5.97;;;3.85;;
46022;SDS011;31756;47.936;16.224;2023-05-10T09:36:57;5.50;;;3.75;;
46022;SDS011;31756;47.936;16.224;2023-05-10T09:39:32;4.03;;;3.72;;
46022;SDS011;31756;47.936;16.224;2023-05-10T09:41:58;4.88;;;3.38;;
46022;SDS011;31756;47.936;16.224;2023-05-10T09:44:25;9.02;;;3.15;;
46022;SDS011;31756;47.936;16.224;2023-05-10T09:46:50;4.90;;;3.25;;
46022;SDS011;31756;47.936;16.224;2023-05-10T09:49:18;4.38;;;3.78;;
46022;SDS011;31756;47.936;16.224;2023-05-10T09:51:43;3.83;;;3.42;;
46022;SDS011;31756;47.936;16.224;2023-05-10T09:54:13;4.57;;;3.45;;
46022;SDS011;31756;47.936;16.224;2023-05-10T09:56:38;4.82;;;3.33;;
46022;SDS011;31756;47.936;16.224;2023-05-10T09:59:06;3.92;;;2.85;;
46022;SDS011;31756;47.936;16.224;2023-05-10T10:01:32;5.20;;;2.80;;
46022;SDS011;31756;47.936;16.224;2023-05-10T10:03:58;3.53;;;2.88;;
46022;SDS011;31756;47.936;16.224;2023-05-10T10:06:24;3.35;;;3.15;;
46022;SDS011;31756;47.936;16.224;2023-05-10T10:08:50;5.97;;;2.92;;
46022;SDS011;31756;47.936;16.224;2023-05-10T10:11:16;3.92;;;2.72;;
46022;SDS011;31756;47.936;16.224;2023-05-10T10:13:42;3.05;;;2.85;;
46022;SDS011;31756;47.936;16.224;2023-05-10T10:16:08;2.58;;;2.38;;
46022;SDS011;31756;47.936;16.224;2023-05-10T10:18:33;4.47;;;2.60;;
46022;SDS011;31756;47.936;16.224;2023-05-10T10:21:04;3.10;;;2.38;;
46022;SDS011;31756;47.936;16.224;2023-05-10T10:23:30;3.00;;;2.45;;
46022;SDS011;31756;47.936;16.224;2023-05-10T10:25:55;2.42;;;2.33;;
46022;SDS011;31756;47.936;16.224;2023-05-10T10:28:24;2.60;;;2.40;;
46022;SDS011;31756;47.936;16.224;2023-05-10T10:30:51;2.50;;;2.30;;
46022;SDS011;31756;47.936;16.224;2023-05-10T10:36:03;2.22;;;2.13;;
46022;SDS011;31756;47.936;16.224;2023-05-10T10:38:36;2.45;;;2.25;;
46022;SDS011;31756;47.936;16.224;2023-05-10T10:41:05;2.08;;;1.98;;
46022;SDS011;31756;47.936;16.224;2023-05-10T10:43:33;3.00;;;2.25;;
46022;SDS011;31756;47.936;16.224;2023-05-10T10:48:39;3.83;;;2.35;;
46022;SDS011;31756;47.936;16.224;2023-05-10T10:51:05;2.50;;;2.28;;
46022;SDS011;31756;47.936;16.224;2023-05-10T10:53:31;2.28;;;2.08;;
46022;SDS011;31756;47.936;16.224;2023-05-10T10:56:10;8.95;;;2.40;;
46022;SDS011;31756;47.936;16.224;2023-05-10T10:58:36;2.40;;;2.20;;
46022;SDS011;31756;47.936;16.224;2023-05-10T11:01:35;3.33;;;2.42;;
46022;SDS011;31756;47.936;16.224;2023-05-10T11:06:29;4.05;;;2.60;;
46022;SDS011;31756;47.936;16.224;2023-05-10T11:08:54;2.42;;;2.10;;
46022;SDS011;31756;47.936;16.224;2023-05-10T11:11:20;2.35;;;2.20;;
46022;SDS011;31756;47.936;16.224;2023-05-10T11:13:46;2.42;;;2.22;;
46022;SDS011;31756;47.936;16.224;2023-05-10T11:16:14;2.75;;;2.55;;
46022;SDS011;31756;47.936;16.224;2023-05-10T11:18:40;6.43;;;2.55;;
46022;SDS011;31756;47.936;16.224;2023-05-10T11:21:08;2.90;;;2.78;;
46022;SDS011;31756;47.936;16.224;2023-05-10T11:23:48;2.88;;;2.67;;
46022;SDS011;31756;47.936;16.224;2023-05-10T11:26:14;4.28;;;2.70;;
46022;SDS011;31756;47.936;16.224;2023-05-10T11:28:46;2.83;;;2.70;;
46022;SDS011;31756;47.936;16.224;2023-05-10T11:31:18;2.65;;;2.55;;
46022;SDS011;31756;47.936;16.224;2023-05-10T11:33:47;4.95;;;3.15;;
46022;SDS011;31756;47.936;16.224;2023-05-10T11:36:14;4.43;;;2.80;;
46022;SDS011;31756;47.936;16.224;2023-05-10T11:38:39;6.93;;;2.65;;
46022;SDS011;31756;47.936;16.224;2023-05-10T11:41:05;3.60;;;2.60;;
46022;SDS011;31756;47.936;16.224;2023-05-10T11:43:30;2.95;;;2.38;;
46022;SDS011;31756;47.936;16.224;2023-05-10T11:45:56;3.78;;;2.50;;
46022;SDS011;31756;47.936;16.224;2023-05-10T11:48:21;3.10;;;2.80;;
46022;SDS011;31756;47.936;16.224;2023-05-10T11:50:49;2.25;;;2.15;;
46022;SDS011;31756;47.936;16.224;2023-05-10T11:53:14;2.60;;;2.40;;
46022;SDS011;31756;47.936;16.224;2023-05-10T11:55:40;3.58;;;2.63;;
46022;SDS011;31756;47.936;16.224;2023-05-10T11:58:05;2.33;;;2.22;;
46022;SDS011;31756;47.936;16.224;2023-05-10T12:00:31;3.03;;;2.55;;
46022;SDS011;31756;47.936;16.224;2023-05-10T12:02:56;3.15;;;2.45;;
46022;SDS011;31756;47.936;16.224;2023-05-10T12:05:22;2.53;;;2.35;;
46022;SDS011;31756;47.936;16.224;2023-05-10T12:07:47;2.50;;;2.30;;
46022;SDS011;31756;47.936;16.224;2023-05-10T12:10:13;3.45;;;2.28;;
46022;SDS011;31756;47.936;16.224;2023-05-10T12:12:45;2.42;;;2.22;;
46022;SDS011;31756;47.936;16.224;2023-05-10T12:17:43;2.67;;;2.53;;
46022;SDS011;31756;47.936;16.224;2023-05-10T12:20:19;2.97;;;2.20;;
46022;SDS011;31756;47.936;16.224;2023-05-10T12:22:54;1.90;;;1.80;;
46022;SDS011;31756;47.936;16.224;2023-05-10T12:25:22;2.20;;;2.10;;
46022;SDS011;31756;47.936;16.224;2023-05-10T12:27:51;2.10;;;2.00;;
46022;SDS011;31756;47.936;16.224;2023-05-10T12:30:27;3.13;;;2.13;;
46022;SDS011;31756;47.936;16.224;2023-05-10T12:32:53;2.40;;;2.28;;
46022;SDS011;31756;47.936;16.224;2023-05-10T12:35:18;2.42;;;2.20;;
46022;SDS011;31756;47.936;16.224;2023-05-10T12:37:50;3.95;;;2.20;;
46022;SDS011;31756;47.936;16.224;2023-05-10T12:40:16;2.35;;;2.15;;
46022;SDS011;31756;47.936;16.224;2023-05-10T12:42:41;2.75;;;2.20;;
46022;SDS011;31756;47.936;16.224;2023-05-10T12:45:07;4.32;;;2.80;;
46022;SDS011;31756;47.936;16.224;2023-05-10T12:47:33;3.28;;;1.92;;
46022;SDS011;31756;47.936;16.224;2023-05-10T12:50:02;7.13;;;2.58;;
46022;SDS011;31756;47.936;16.224;2023-05-10T12:52:28;2.47;;;2.28;;
46022;SDS011;31756;47.936;16.224;2023-05-10T12:54:53;6.63;;;2.28;;
46022;SDS011;31756;47.936;16.224;2023-05-10T12:57:22;3.70;;;2.28;;
46022;SDS011;31756;47.936;16.224;2023-05-10T12:59:47;1.98;;;1.88;;
46022;SDS011;31756;47.936;16.224;2023-05-10T13:02:13;3.15;;;2.40;;
46022;SDS011;31756;47.936;16.224;2023-05-10T13:04:39;2.15;;;2.05;;
46022;SDS011;31756;47.936;16.224;2023-05-10T13:07:06;2.10;;;2.00;;
46022;SDS011;31756;47.936;16.224;2023-05-10T13:09:31;2.00;;;1.90;;
46022;SDS011;31756;47.936;16.224;2023-05-10T13:11:57;2.05;;;1.92;;
46022;SDS011;31756;47.936;16.224;2023-05-10T13:14:23;2.20;;;2.10;;
46022;SDS011;31756;47.936;16.224;2023-05-10T13:16:48;2.95;;;2.17;;
46022;SDS011;31756;47.936;16.224;2023-05-10T13:19:14;2.55;;;2.20;;
46022;SDS011;31756;47.936;16.224;2023-05-10T13:21:39;4.00;;;1.90;;
46022;SDS011;31756;47.936;16.224;2023-05-10T13:24:08;2.72;;;2.25;;
46022;SDS011;31756;47.936;16.224;2023-05-10T13:26:33;5.55;;;2.53;;
46022;SDS011;31756;47.936;16.224;2023-05-10T13:28:58;2.25;;;2.15;;
46022;SDS011;31756;47.936;16.224;2023-05-10T13:31:24;2.00;;;1.90;;
46022;SDS011;31756;47.936;16.224;2023-05-10T13:33:49;5.65;;;3.35;;
46022;SDS011;31756;47.936;16.224;2023-05-10T13:36:15;2.40;;;2.20;;
46022;SDS011;31756;47.936;16.224;2023-05-10T13:38:43;2.65;;;2.38;;
46022;SDS011;31756;47.936;16.224;2023-05-10T13:41:09;2.72;;;2.20;;
46022;SDS011;31756;47.936;16.224;2023-05-10T13:43:35;4.25;;;2.50;;
46022;SDS011;31756;47.936;16.224;2023-05-10T13:46:01;4.82;;;2.65;;
46022;SDS011;31756;47.936;16.224;2023-05-10T13:48:26;2.67;;;2.47;;
46022;SDS011;31756;47.936;16.224;2023-05-10T13:50:52;2.60;;;2.40;;
46022;SDS011;31756;47.936;16.224;2023-05-10T13:53:18;5.03;;;2.50;;
46022;SDS011;31756;47.936;16.224;2023-05-10T13:55:43;2.95;;;2.75;;
46022;SDS011;31756;47.936;16.224;2023-05-10T13:58:09;4.07;;;2.50;;
46022;SDS011;31756;47.936;16.224;2023-05-10T14:00:34;2.45;;;2.35;;
46022;SDS011;31756;47.936;16.224;2023-05-10T14:03:00;2.53;;;2.42;;
46022;SDS011;31756;47.936;16.224;2023-05-10T14:05:26;2.33;;;2.22;;
46022;SDS011;31756;47.936;16.224;2023-05-10T14:07:51;4.60;;;2.40;;
46022;SDS011;31756;47.936;16.224;2023-05-10T14:10:17;3.88;;;2.92;;
46022;SDS011;31756;47.936;16.224;2023-05-10T14:12:42;2.67;;;2.45;;
46022;SDS011;31756;47.936;16.224;2023-05-10T14:15:08;2.83;;;2.40;;
46022;SDS011;31756;47.936;16.224;2023-05-10T14:17:35;2.40;;;2.30;;
46022;SDS011;31756;47.936;16.224;2023-05-10T14:20:01;2.42;;;2.33;;
46022;SDS011;31756;47.936;16.224;2023-05-10T14:22:26;2.72;;;2.53;;
46022;SDS011;31756;47.936;16.224;2023-05-10T14:24:52;3.22;;;2.92;;
46022;SDS011;31756;47.936;16.224;2023-05-10T14:27:17;2.83;;;2.63;;
46022;SDS011;31756;47.936;16.224;2023-05-10T14:29:43;2.35;;;2.25;;
46022;SDS011;31756;47.936;16.224;2023-05-10T14:32:13;2.63;;;2.45;;
46022;SDS011;31756;47.936;16.224;2023-05-10T14:34:43;2.30;;;2.20;;
46022;SDS011;31756;47.936;16.224;2023-05-10T14:37:10;3.85;;;2.58;;
46022;SDS011;31756;47.936;16.224;2023-05-10T14:39:35;5.15;;;2.70;;
46022;SDS011;31756;47.936;16.224;2023-05-10T14:42:01;3.00;;;2.63;;
46022;SDS011;31756;47.936;16.224;2023-05-10T14:44:27;3.72;;;2.88;;
46022;SDS011;31756;47.936;16.224;2023-05-10T14:46:53;3.25;;;2.63;;
46022;SDS011;31756;47.936;16.224;2023-05-10T14:49:18;2.60;;;2.40;;
46022;SDS011;31756;47.936;16.224;2023-05-10T14:51:44;2.70;;;2.25;;